Nesconset, NY (11767)

3:52 AM EDT on August 04, 2015 (GMT -0400)
Nesconset Extreme | | Change Station
CLOSE
Current Station
Personal Weather Station
Location: Nesconset, NY
Elevation: 92 ft
Nearby Weather Stations

Elev 92 ft 40.85 °N, 73.13 °W | Updated 6 seconds ago

Mostly Cloudy
Mostly Cloudy
77.0 °F
Feels Like 78 °F
N
0.4
Wind Variable Wind from SSW
Gusts 2.5 mph

Today
High -- | Low -- °F
--% Chance of Precip.
Yesterday
High -- | Low -- °F
Precip. -- in
5:51 AM 8:05 PM
Waning Gibbous, 80% visible
Pressure 29.82 in
Visibility 9.0 miles
Clouds Mostly Cloudy 900 ft
Mostly Cloudy 7000 ft
Heat Index 78 °F
Dew Point 76 °F
Humidity 97%
Rainfall 0.00 in
Snow Depth Not available.
UV 0 out of 12
Pollen 7.60 out of 12
Air Quality Not available.
Flu Activity Not available.
SPECI KISP 040739Z AUTO 22011KT 9SM BKN009 BKN070 25/23 A2982 RMK AO2 T02500233

More Conditions Fewer Conditions

Pressure 29.82 in
Visibility 9.0 miles
Clouds Mostly Cloudy 900 ft
Mostly Cloudy 7000 ft
Heat Index 78 °F
Dew Point 76 °F
Humidity 97%
Rainfall 0.00 in
Snow Depth Not available.
UV 0 out of 12
Pollen 7.60 out of 12
Air Quality Not available.
Flu Activity Not available.
SPECI KISP 040739Z AUTO 22011KT 9SM BKN009 BKN070 25/23 A2982 RMK AO2 T02500233

More Conditions Fewer Conditions

10-Day Weather Forecast

×

Almanac

Astronomy

Aug. 04, 2015 Rise Set
Actual Time
Civil Twilight
Nautical Twilight
Astronomical Twilight
Moon
Length of Visible Light
Length of Day
Tomorrow will be .
, % of the Moon is Illuminated

Today's Extremes

State Highs State Lows

Community

WunderPhotos

Upload Photos

1,843,877 photos uploaded!

WunderBlogs® & News

Nearby

Air Quality

  Air Quality AQ Index Pollutant
Not available.

Snow Depth

Station Depth Elevation

Earthquake Activity

City Distance Mag. Time & Date
Minimum magnitude displayed is 2.5.

Coastal Water Temperatures

Place Temperature

Stations

Nearby Weather Stations

Station Location Temp. Windchill Dew Point Humidity Wind Precip. Elev Updated Type